createdAt,value
2022-09-15T00:02:06.244Z,63.47
2022-09-15T00:04:58.440Z,65.28
2022-09-15T00:07:50.673Z,63.81
2022-09-15T00:10:32.782Z,62.60
2022-09-15T00:13:27.454Z,61.82
2022-09-15T00:16:22.379Z,61.05
2022-09-15T00:19:14.528Z,60.49
2022-09-15T00:22:06.749Z,60.09
2022-09-15T00:24:54.095Z,57.76
2022-09-15T00:27:46.030Z,57.07
2022-09-15T00:30:40.775Z,58.38
2022-09-15T00:33:32.835Z,63.28
2022-09-15T00:36:27.021Z,64.98
2022-09-15T00:39:19.266Z,63.70
2022-09-15T00:42:15.796Z,62.56
2022-09-15T00:45:15.543Z,61.79
2022-09-15T00:48:09.631Z,61.33
2022-09-15T00:51:03.027Z,60.74
2022-09-15T00:53:55.724Z,60.35
2022-09-15T00:56:50.711Z,59.92
2022-09-15T00:59:45.517Z,57.76
2022-09-15T01:02:39.515Z,57.28
2022-09-15T01:05:48.682Z,58.87
2022-09-15T01:08:45.222Z,63.58
2022-09-15T01:11:28.542Z,64.87
2022-09-15T01:14:20.878Z,63.41
2022-09-15T01:17:11.609Z,62.28
2022-09-15T01:20:35.226Z,61.56
2022-09-15T01:24:00.202Z,61.13
2022-09-15T01:27:18.510Z,60.77
2022-09-15T01:30:18.210Z,60.19
2022-09-15T01:33:18.840Z,57.82
2022-09-15T01:36:17.168Z,57.34
2022-09-15T01:39:15.467Z,58.54
2022-09-15T01:42:13.362Z,63.48
2022-09-15T01:45:09.839Z,65.22
2022-09-15T01:48:03.900Z,63.82
2022-09-15T01:51:00.683Z,62.48
2022-09-15T01:53:54.037Z,61.43
2022-09-15T01:56:46.716Z,60.80
2022-09-15T01:59:39.117Z,60.34
2022-09-15T02:02:36.980Z,59.90
2022-09-15T02:05:33.645Z,57.67
2022-09-15T02:08:31.396Z,57.25
2022-09-15T02:11:28.312Z,58.91
2022-09-15T02:14:26.244Z,63.91
2022-09-15T02:17:20.756Z,65.41
2022-09-15T02:20:16.134Z,64.18
2022-09-15T02:23:12.860Z,63.20
2022-09-15T02:26:10.218Z,62.30
2022-09-15T02:29:07.454Z,61.44
2022-09-15T02:32:06.987Z,60.76
2022-09-15T02:35:07.883Z,60.10
2022-09-15T02:38:01.453Z,57.56
2022-09-15T02:40:54.178Z,57.10
2022-09-15T02:43:47.653Z,58.99
2022-09-15T02:46:40.429Z,63.69
2022-09-15T02:49:32.614Z,65.07
2022-09-15T02:52:04.805Z,63.72
2022-09-15T02:54:57.123Z,62.79
2022-09-15T02:57:49.411Z,61.77
2022-09-15T03:00:42.664Z,61.22
2022-09-15T03:03:41.107Z,60.52
2022-09-15T03:06:36.208Z,60.10
2022-09-15T03:09:28.753Z,57.51
2022-09-15T03:12:21.142Z,56.73
2022-09-15T03:15:15.895Z,58.34
2022-09-15T03:17:58.011Z,62.97
2022-09-15T03:20:50.268Z,65.04
2022-09-15T03:23:43.333Z,63.60
2022-09-15T03:26:35.776Z,62.39
2022-09-15T03:29:28.481Z,61.58
2022-09-15T03:32:10.900Z,60.79
2022-09-15T03:34:42.835Z,60.33
2022-09-15T03:37:35.445Z,60.09
2022-09-15T03:40:27.651Z,59.90
2022-09-15T03:43:20.006Z,57.85
2022-09-15T03:46:14.721Z,56.98
2022-09-15T03:49:06.220Z,58.47
2022-09-15T03:51:58.927Z,63.87
2022-09-15T03:54:52.005Z,65.58
2022-09-15T03:57:44.579Z,64.27
2022-09-15T04:00:37.778Z,63.33
2022-09-15T04:03:23.110Z,62.68
2022-09-15T04:06:15.919Z,62.08
2022-09-15T04:09:08.809Z,61.68
2022-09-15T04:12:01.320Z,61.45
2022-09-15T04:14:54.110Z,61.13
2022-09-15T04:17:46.755Z,60.84
2022-09-15T04:20:30.022Z,60.47
2022-09-15T04:23:22.314Z,60.20
2022-09-15T04:26:19.977Z,59.95
2022-09-15T04:29:14.896Z,57.49
2022-09-15T04:32:07.473Z,56.39
2022-09-15T04:34:59.605Z,59.18
2022-09-15T04:37:51.831Z,64.22
2022-09-15T04:40:44.045Z,65.71
2022-09-15T04:43:36.861Z,64.43
2022-09-15T04:46:30.722Z,63.49
2022-09-15T04:49:23.326Z,62.55
2022-09-15T04:52:15.974Z,61.94
2022-09-15T04:55:10.836Z,61.46
2022-09-15T04:58:03.490Z,60.90
2022-09-15T05:00:55.887Z,60.55
2022-09-15T05:03:49.475Z,60.24
2022-09-15T05:06:41.831Z,59.97
2022-09-15T05:09:34.678Z,57.74
2022-09-15T05:12:27.982Z,57.59
2022-09-15T05:15:13.865Z,59.49
2022-09-15T05:18:06.540Z,63.63
2022-09-15T05:20:38.545Z,65.13
2022-09-15T05:23:31.455Z,63.60
2022-09-15T05:26:25.822Z,62.06
2022-09-15T05:29:06.767Z,61.07
2022-09-15T05:31:59.037Z,60.37
2022-09-15T05:34:53.612Z,58.11
2022-09-15T05:37:45.990Z,57.64
2022-09-15T05:40:38.353Z,59.55
2022-09-15T05:43:23.290Z,64.05
2022-09-15T05:46:09.348Z,65.61
2022-09-15T05:49:02.135Z,64.53
2022-09-15T05:51:35.090Z,63.12
2022-09-15T05:54:28.469Z,62.43
2022-09-15T05:57:21.259Z,62.07
2022-09-15T06:00:15.673Z,61.69
2022-09-15T06:03:08.856Z,61.11
2022-09-15T06:06:03.579Z,60.69
2022-09-15T06:08:59.432Z,59.97
2022-09-15T06:11:52.300Z,57.89
2022-09-15T06:14:37.176Z,57.07
2022-09-15T06:17:29.840Z,57.88
2022-09-15T06:20:22.558Z,60.07
2022-09-15T06:23:14.783Z,63.94
2022-09-15T06:26:12.908Z,64.79
2022-09-15T06:29:06.862Z,62.76
2022-09-15T06:32:02.805Z,60.86
2022-09-15T06:34:55.164Z,57.70
2022-09-15T06:37:47.743Z,56.28
2022-09-15T06:40:39.888Z,57.41
2022-09-15T06:43:33.553Z,58.94
2022-09-15T06:46:28.417Z,61.31
2022-09-15T06:49:21.982Z,64.73
2022-09-15T06:52:13.144Z,64.41
2022-09-15T06:55:06.148Z,62.00
2022-09-15T06:57:58.651Z,58.21
2022-09-15T07:00:50.874Z,57.10
2022-09-15T07:03:44.516Z,57.95
2022-09-15T07:06:28.661Z,58.75
2022-09-15T07:09:20.922Z,60.10
2022-09-15T07:11:55.920Z,63.47
2022-09-15T07:14:48.098Z,64.80
2022-09-15T07:17:40.617Z,63.24
2022-09-15T07:20:33.084Z,61.14
2022-09-15T07:23:25.405Z,57.61
2022-09-15T07:26:19.266Z,56.47
2022-09-15T07:29:12.320Z,56.64
2022-09-15T07:32:05.042Z,58.37
2022-09-15T07:34:58.522Z,59.09
2022-09-15T07:37:50.030Z,59.93
2022-09-15T07:40:42.343Z,61.04
2022-09-15T07:43:35.353Z,63.99
2022-09-15T07:46:31.442Z,64.39
2022-09-15T07:49:17.118Z,61.65
2022-09-15T07:52:10.097Z,58.03
2022-09-15T07:55:02.496Z,57.10
2022-09-15T07:58:00.650Z,58.22
2022-09-15T08:00:53.038Z,59.22
2022-09-15T08:03:40.332Z,60.80
2022-09-15T08:06:34.820Z,64.35
2022-09-15T08:09:20.985Z,64.87
2022-09-15T08:12:13.503Z,63.12
2022-09-15T08:14:50.677Z,60.89
2022-09-15T08:17:43.226Z,58.10
2022-09-15T08:20:35.671Z,57.33
2022-09-15T08:23:28.341Z,58.79
2022-09-15T08:26:21.132Z,61.09
2022-09-15T08:29:13.606Z,65.27
2022-09-15T08:32:06.229Z,65.37
2022-09-15T08:34:58.539Z,64.52
2022-09-15T08:37:51.373Z,63.69
2022-09-15T08:40:48.322Z,62.48
2022-09-15T08:43:38.649Z,62.17
2022-09-15T08:46:37.700Z,61.46
2022-09-15T08:49:51.067Z,60.66
2022-09-15T08:52:31.615Z,60.04
2022-09-15T08:55:34.688Z,58.02
2022-09-15T08:58:30.845Z,58.43
2022-09-15T09:01:37.499Z,59.81
2022-09-15T09:04:48.435Z,64.89
2022-09-15T09:07:40.101Z,64.93
2022-09-15T09:10:42.846Z,63.22
2022-09-15T09:13:42.450Z,61.70
2022-09-15T09:16:45.041Z,60.75
2022-09-15T09:20:00.411Z,58.08
2022-09-15T09:22:55.349Z,58.19
2022-09-15T09:25:49.808Z,59.88
2022-09-15T09:28:49.205Z,60.94
2022-09-15T09:31:42.985Z,64.15
2022-09-15T09:34:32.898Z,64.20
2022-09-15T09:37:15.639Z,61.99
2022-09-15T09:40:13.476Z,61.14
2022-09-15T09:43:04.420Z,60.67
2022-09-15T09:45:56.751Z,60.58
2022-09-15T09:48:39.877Z,59.66
2022-09-15T09:51:35.173Z,58.21
2022-09-15T09:54:28.814Z,58.88
2022-09-15T09:57:32.614Z,60.64
2022-09-15T10:00:39.918Z,65.15
2022-09-15T10:03:33.127Z,65.25
2022-09-15T10:06:08.464Z,63.71
2022-09-15T10:09:04.877Z,62.34
2022-09-15T10:12:00.470Z,62.07
2022-09-15T10:14:56.423Z,60.93
2022-09-15T10:17:50.821Z,58.35
2022-09-15T10:20:51.181Z,58.62
2022-09-15T10:23:43.862Z,60.14
2022-09-15T10:26:37.725Z,64.35
2022-09-15T10:29:38.256Z,65.13
2022-09-15T10:32:32.291Z,64.49
2022-09-15T10:35:16.878Z,63.11
2022-09-15T10:38:14.130Z,62.05
2022-09-15T10:41:03.699Z,61.47
2022-09-15T10:44:20.157Z,60.23
2022-09-15T10:47:12.864Z,57.97
2022-09-15T10:50:16.857Z,57.78
2022-09-15T10:53:15.299Z,60.02
2022-09-15T10:56:16.511Z,63.63
2022-09-15T10:59:35.581Z,63.42
2022-09-15T11:02:49.390Z,60.20
2022-09-15T11:05:52.058Z,56.21
2022-09-15T11:09:00.991Z,55.67
2022-09-15T11:12:05.567Z,56.62
2022-09-15T11:15:17.607Z,59.49
2022-09-15T11:18:38.979Z,60.05
2022-09-15T11:21:35.865Z,65.08
2022-09-15T11:24:30.303Z,65.49
2022-09-15T11:27:28.934Z,63.11
2022-09-15T11:30:24.417Z,61.78
2022-09-15T11:33:02.535Z,58.59
2022-09-15T11:36:00.447Z,57.67
2022-09-15T11:38:57.980Z,58.48
2022-09-15T11:41:56.613Z,60.62
2022-09-15T11:44:50.869Z,64.76
2022-09-15T11:47:40.835Z,65.31
2022-09-15T11:50:29.413Z,64.37
2022-09-15T11:53:28.719Z,62.73
2022-09-15T11:56:27.481Z,61.10
2022-09-15T11:59:29.535Z,57.82
2022-09-15T12:02:29.569Z,57.00
2022-09-15T12:05:25.431Z,57.29
2022-09-15T12:08:17.421Z,59.01
2022-09-15T12:11:13.421Z,63.10
2022-09-15T12:14:07.015Z,62.42
2022-09-15T12:17:11.431Z,61.57
2022-09-15T12:20:07.963Z,58.61
2022-09-15T12:23:12.942Z,57.37
2022-09-15T12:26:15.495Z,58.25
2022-09-15T12:29:41.902Z,59.45
2022-09-15T12:32:35.687Z,64.90
2022-09-15T12:35:34.345Z,65.33
2022-09-15T12:38:33.193Z,64.05
2022-09-15T12:41:05.670Z,62.12
2022-09-15T12:44:00.275Z,60.87
2022-09-15T12:46:56.338Z,57.16
2022-09-15T12:49:49.321Z,56.16
2022-09-15T12:52:51.505Z,57.35
2022-09-15T12:55:51.885Z,59.06
2022-09-15T12:58:34.744Z,59.67
2022-09-15T13:01:50.426Z,60.59
2022-09-15T13:04:58.092Z,61.38
2022-09-15T13:07:58.880Z,65.58
2022-09-15T13:11:04.732Z,66.31
2022-09-15T13:14:10.760Z,63.57
2022-09-15T13:17:07.043Z,62.06
2022-09-15T13:19:52.770Z,60.44
2022-09-15T13:22:51.021Z,57.25
2022-09-15T13:25:44.948Z,56.54
2022-09-15T13:28:38.464Z,57.72
2022-09-15T13:31:40.474Z,58.78
2022-09-15T13:35:20.663Z,60.54
2022-09-15T13:38:32.099Z,65.40
2022-09-15T13:41:43.921Z,64.08
2022-09-15T13:45:05.119Z,61.40
2022-09-15T13:48:19.428Z,56.70
2022-09-15T13:51:20.694Z,55.25
2022-09-15T13:54:19.261Z,56.84
2022-09-15T13:57:11.564Z,57.02
2022-09-15T14:00:10.946Z,57.62
2022-09-15T14:03:12.407Z,58.06
2022-09-15T14:06:10.659Z,59.39
2022-09-15T14:09:08.076Z,59.43
2022-09-15T14:12:00.526Z,59.68
2022-09-15T14:14:50.856Z,60.28
2022-09-15T14:17:48.163Z,60.51
2022-09-15T14:20:40.203Z,61.09
2022-09-15T14:23:33.070Z,61.73
2022-09-15T14:26:17.183Z,64.75
2022-09-15T14:28:57.357Z,65.52
2022-09-15T14:31:50.333Z,63.61
2022-09-15T14:34:43.166Z,58.85
2022-09-15T14:37:27.820Z,56.72
2022-09-15T14:40:27.825Z,57.21
2022-09-15T14:43:32.520Z,58.53
2022-09-15T14:46:25.015Z,59.68
2022-09-15T14:49:18.002Z,63.90
2022-09-15T14:51:55.177Z,65.23
2022-09-15T14:54:47.360Z,63.39
2022-09-15T15:00:47.743Z,61.21
2022-09-15T15:03:47.612Z,58.08
2022-09-15T15:06:46.395Z,56.95
2022-09-15T15:09:33.909Z,58.01
2022-09-15T15:12:28.448Z,59.00
2022-09-15T15:15:20.071Z,60.01
2022-09-15T15:18:38.612Z,64.35
2022-09-15T15:21:44.038Z,65.81
2022-09-15T15:24:24.382Z,63.59
2022-09-15T15:27:43.825Z,61.92
2022-09-15T15:30:44.603Z,60.86
2022-09-15T15:33:36.819Z,57.56
2022-09-15T15:36:30.811Z,56.66
2022-09-15T15:39:26.607Z,57.70
2022-09-15T15:42:17.631Z,59.12
2022-09-15T15:45:24.343Z,63.60
2022-09-15T15:48:16.527Z,65.01
2022-09-15T15:51:09.426Z,63.29
2022-09-15T15:54:01.589Z,61.71
2022-09-15T15:56:53.995Z,60.73
2022-09-15T15:59:47.448Z,58.15
2022-09-15T16:02:39.512Z,57.37
2022-09-15T16:05:32.754Z,58.79
2022-09-15T16:08:30.322Z,63.25
2022-09-15T16:11:22.352Z,64.72
2022-09-15T16:14:16.515Z,63.36
2022-09-15T16:17:08.506Z,62.15
2022-09-15T16:20:00.295Z,61.49
2022-09-15T16:22:44.886Z,60.70
2022-09-15T16:25:44.121Z,58.31
2022-09-15T16:28:36.322Z,57.72
2022-09-15T16:31:28.562Z,58.93
2022-09-15T16:34:20.871Z,63.67
2022-09-15T16:37:14.094Z,65.07
2022-09-15T16:40:07.141Z,63.76
2022-09-15T16:42:59.199Z,62.67
2022-09-15T16:45:52.967Z,61.92
2022-09-15T16:48:47.398Z,61.33
2022-09-15T16:51:31.567Z,61.07
2022-09-15T16:54:23.952Z,60.86
2022-09-15T16:57:18.306Z,60.37
2022-09-15T17:00:14.726Z,59.94
2022-09-15T17:03:09.062Z,57.79
2022-09-15T17:06:02.399Z,57.64
2022-09-15T17:08:55.736Z,59.27
2022-09-15T17:11:31.879Z,63.65
2022-09-15T17:14:24.079Z,65.38
2022-09-15T17:17:05.235Z,64.21
2022-09-15T17:19:58.120Z,63.43
2022-09-15T17:22:51.249Z,62.70
2022-09-15T17:25:49.014Z,61.99
2022-09-15T17:28:39.725Z,61.57
2022-09-15T17:31:32.745Z,61.84
2022-09-15T17:34:24.895Z,61.27
2022-09-15T17:37:17.132Z,60.79
2022-09-15T17:40:10.820Z,60.44
2022-09-15T17:43:03.592Z,60.11
2022-09-15T17:45:49.349Z,59.79
2022-09-15T17:48:31.204Z,58.00
2022-09-15T17:51:23.375Z,57.81
2022-09-15T17:54:07.538Z,59.48
2022-09-15T17:57:02.681Z,63.93
2022-09-15T17:59:54.800Z,65.24
2022-09-15T18:02:36.757Z,64.00
2022-09-15T18:05:30.677Z,62.98
2022-09-15T18:08:23.021Z,62.20
2022-09-15T18:11:07.552Z,61.55
2022-09-15T18:14:00.910Z,61.21
2022-09-15T18:16:53.028Z,60.97
2022-09-15T18:19:45.760Z,60.87
2022-09-15T18:22:37.993Z,60.91
2022-09-15T18:25:32.158Z,61.10
2022-09-15T18:28:24.359Z,61.26
2022-09-15T18:31:16.884Z,61.11
2022-09-15T18:34:10.594Z,60.86
2022-09-15T18:37:03.095Z,60.69
2022-09-15T18:39:55.486Z,60.50
2022-09-15T18:42:29.908Z,60.44
2022-09-15T18:45:03.866Z,60.31
2022-09-15T18:47:35.763Z,60.19
2022-09-15T18:50:13.288Z,60.28
2022-09-15T18:52:47.928Z,60.40
2022-09-15T18:55:43.819Z,60.42
2022-09-15T18:58:28.454Z,60.39
2022-09-15T19:01:20.743Z,60.42
2022-09-15T19:04:13.285Z,60.45
2022-09-15T19:07:05.344Z,60.43
2022-09-15T19:09:58.531Z,60.42
2022-09-15T19:12:51.296Z,60.58
2022-09-15T19:15:44.274Z,60.74
2022-09-15T19:18:37.062Z,60.68
2022-09-15T19:21:29.239Z,60.83
2022-09-15T19:24:15.708Z,60.73
2022-09-15T19:27:10.029Z,60.69
2022-09-15T19:30:02.410Z,60.98
2022-09-15T19:32:34.921Z,61.21
2022-09-15T19:35:27.014Z,61.43
2022-09-15T19:38:07.731Z,61.67
2022-09-15T19:41:06.779Z,61.80
2022-09-15T19:44:01.457Z,62.09
2022-09-15T19:46:46.052Z,62.31
2022-09-15T19:49:17.869Z,62.46
2022-09-15T19:51:54.962Z,62.82
2022-09-15T19:54:31.624Z,62.99
2022-09-15T19:57:16.374Z,62.93
2022-09-15T20:00:11.706Z,62.86
2022-09-15T20:02:57.169Z,62.46
2022-09-15T20:05:54.082Z,62.39
2022-09-15T20:08:48.250Z,62.21
2022-09-15T20:11:40.380Z,62.09
2022-09-15T20:14:34.807Z,61.88
2022-09-15T20:17:28.573Z,61.57
2022-09-15T20:20:22.901Z,61.36
2022-09-15T20:23:16.167Z,61.17
2022-09-15T20:26:05.429Z,61.00
2022-09-15T20:29:01.300Z,60.87
2022-09-15T20:31:54.903Z,60.65
2022-09-15T20:34:50.003Z,60.55
2022-09-15T20:37:43.241Z,60.30
2022-09-15T20:40:32.970Z,59.81
2022-09-15T20:43:27.980Z,57.97
2022-09-15T20:46:22.936Z,57.84
2022-09-15T20:49:16.668Z,59.46
2022-09-15T20:52:09.873Z,64.28
2022-09-15T20:55:02.987Z,65.80
2022-09-15T20:57:56.092Z,64.56
2022-09-15T21:00:49.102Z,63.54
2022-09-15T21:03:43.011Z,62.80
2022-09-15T21:06:26.827Z,62.45
2022-09-15T21:09:19.563Z,62.22
2022-09-15T21:12:12.400Z,61.84
2022-09-15T21:15:05.282Z,61.76
2022-09-15T21:17:58.274Z,61.65
2022-09-15T21:20:57.619Z,61.68
2022-09-15T21:23:51.866Z,61.60
2022-09-15T21:26:58.429Z,61.61
2022-09-15T21:29:53.730Z,61.71
2022-09-15T21:32:46.241Z,61.72
2022-09-15T21:35:40.194Z,61.89
2022-09-15T21:38:32.696Z,62.01
2022-09-15T21:41:27.352Z,62.13
2022-09-15T21:44:13.145Z,62.03
2022-09-15T21:47:05.716Z,62.04
2022-09-15T21:50:01.464Z,61.78
2022-09-15T21:52:47.134Z,61.72
2022-09-15T21:55:40.885Z,62.07
2022-09-15T21:58:39.013Z,61.99
2022-09-15T22:01:35.976Z,62.18
2022-09-15T22:04:28.498Z,62.36
2022-09-15T22:07:21.840Z,62.49
2022-09-15T22:10:14.409Z,62.74
2022-09-15T22:13:07.613Z,62.79
2022-09-15T22:16:05.741Z,62.76
2022-09-15T22:18:52.298Z,62.81
2022-09-15T22:21:36.906Z,62.65
2022-09-15T22:24:29.538Z,62.69
2022-09-15T22:27:22.063Z,62.65
2022-09-15T22:30:09.444Z,62.64
2022-09-15T22:32:51.863Z,62.61
2022-09-15T22:35:49.580Z,62.77
2022-09-15T22:38:42.258Z,62.66
2022-09-15T22:41:28.884Z,62.62
2022-09-15T22:44:22.965Z,62.79
2022-09-15T22:47:15.466Z,62.95
2022-09-15T22:50:08.598Z,62.91
2022-09-15T22:53:00.273Z,62.97
2022-09-15T22:55:53.177Z,62.88
2022-09-15T22:58:34.767Z,62.70
2022-09-15T23:01:28.639Z,62.86
2022-09-15T23:04:13.122Z,62.96
2022-09-15T23:07:05.752Z,63.33
2022-09-15T23:09:47.932Z,63.53
2022-09-15T23:12:39.079Z,63.33
2022-09-15T23:15:31.161Z,63.58
2022-09-15T23:18:23.159Z,63.76
2022-09-15T23:21:15.822Z,63.78
2022-09-15T23:23:59.299Z,63.74
2022-09-15T23:26:43.705Z,64.06
2022-09-15T23:29:28.593Z,64.04
2022-09-15T23:32:20.681Z,63.99
2022-09-15T23:35:13.169Z,63.88
2022-09-15T23:38:05.363Z,63.70
2022-09-15T23:40:57.343Z,63.78
2022-09-15T23:43:33.293Z,63.87
2022-09-15T23:46:25.341Z,63.81
2022-09-15T23:49:18.778Z,63.82
2022-09-15T23:52:10.953Z,63.76
2022-09-15T23:55:04.149Z,63.63
2022-09-15T23:57:49.057Z,63.70
